sensor_id;sensor_type;location;lat;lon;timestamp;pressure;altitude;pressure_sealevel;temperature;humidity
79085;BME280;68486;42.808;23.422;2023-05-21T00:00:29;94071.41;;;13.28;69.60
79085;BME280;68486;42.808;23.422;2023-05-21T00:02:54;94062.88;;;13.33;68.19
79085;BME280;68486;42.808;23.422;2023-05-21T00:05:20;94043.28;;;13.29;69.19
79085;BME280;68486;42.808;23.422;2023-05-21T00:07:45;94053.00;;;13.28;69.55
79085;BME280;68486;42.808;23.422;2023-05-21T00:10:11;94047.34;;;13.24;71.49
79085;BME280;68486;42.808;23.422;2023-05-21T00:12:37;94036.22;;;13.16;70.69
79085;BME280;68486;42.808;23.422;2023-05-21T00:15:03;94038.69;;;13.11;71.62
79085;BME280;68486;42.808;23.422;2023-05-21T00:17:28;94037.28;;;13.08;72.39
79085;BME280;68486;42.808;23.422;2023-05-21T00:19:54;94043.63;;;12.94;72.91
79085;BME280;68486;42.808;23.422;2023-05-21T00:22:21;94042.47;;;12.90;72.66
79085;BME280;68486;42.808;23.422;2023-05-21T00:24:47;93997.13;;;12.56;72.90
79085;BME280;68486;42.808;23.422;2023-05-21T00:27:13;94035.00;;;12.80;71.33
79085;BME280;68486;42.808;23.422;2023-05-21T00:29:38;94030.00;;;12.72;71.15
79085;BME280;68486;42.808;23.422;2023-05-21T00:32:04;94026.38;;;12.66;73.33
79085;BME280;68486;42.808;23.422;2023-05-21T00:34:30;94027.66;;;12.51;73.31
79085;BME280;68486;42.808;23.422;2023-05-21T00:36:55;94029.69;;;12.42;74.65
79085;BME280;68486;42.808;23.422;2023-05-21T00:39:22;94026.50;;;12.27;74.54
79085;BME280;68486;42.808;23.422;2023-05-21T00:41:47;94001.53;;;12.11;74.29
79085;BME280;68486;42.808;23.422;2023-05-21T00:44:13;94025.59;;;12.53;72.51
79085;BME280;68486;42.808;23.422;2023-05-21T00:46:39;94026.06;;;12.43;74.64
79085;BME280;68486;42.808;23.422;2023-05-21T00:49:05;94018.41;;;12.35;74.56
79085;BME280;68486;42.808;23.422;2023-05-21T00:51:31;94028.34;;;12.20;75.79
79085;BME280;68486;42.808;23.422;2023-05-21T00:53:57;94023.69;;;12.22;75.99
79085;BME280;68486;42.808;23.422;2023-05-21T00:56:23;94013.03;;;12.10;76.82
79085;BME280;68486;42.808;23.422;2023-05-21T00:58:50;94018.47;;;12.15;77.31
79085;BME280;68486;42.808;23.422;2023-05-21T01:01:16;94013.63;;;12.12;75.86
79085;BME280;68486;42.808;23.422;2023-05-21T01:03:42;94017.03;;;12.19;76.04
79085;BME280;68486;42.808;23.422;2023-05-21T01:06:10;94015.59;;;12.23;76.69
79085;BME280;68486;42.808;23.422;2023-05-21T01:08:36;93997.47;;;12.08;76.45
79085;BME280;68486;42.808;23.422;2023-05-21T01:11:04;94014.38;;;12.32;75.96
79085;BME280;68486;42.808;23.422;2023-05-21T01:13:31;94006.31;;;12.27;75.69
79085;BME280;68486;42.808;23.422;2023-05-21T01:15:58;94013.59;;;12.32;75.88
79085;BME280;68486;42.808;23.422;2023-05-21T01:18:24;94021.59;;;12.50;73.97
79085;BME280;68486;42.808;23.422;2023-05-21T01:20:50;93986.91;;;12.35;74.43
79085;BME280;68486;42.808;23.422;2023-05-21T01:23:16;94015.28;;;12.58;75.01
79085;BME280;68486;42.808;23.422;2023-05-21T01:25:43;94017.13;;;12.57;74.38
79085;BME280;68486;42.808;23.422;2023-05-21T01:28:09;94013.88;;;12.62;74.83
79085;BME280;68486;42.808;23.422;2023-05-21T01:30:35;94011.84;;;12.64;74.67
79085;BME280;68486;42.808;23.422;2023-05-21T01:33:03;94008.78;;;12.67;73.96
79085;BME280;68486;42.808;23.422;2023-05-21T01:35:33;94013.41;;;12.72;73.70
79085;BME280;68486;42.808;23.422;2023-05-21T01:38:24;94014.91;;;12.54;73.92
79085;BME280;68486;42.808;23.422;2023-05-21T01:40:54;94008.75;;;12.74;72.85
79085;BME280;68486;42.808;23.422;2023-05-21T01:43:24;93999.28;;;12.66;72.88
79085;BME280;68486;42.808;23.422;2023-05-21T01:45:54;93983.00;;;12.44;73.49
79085;BME280;68486;42.808;23.422;2023-05-21T01:48:21;93965.28;;;12.33;72.91
79085;BME280;68486;42.808;23.422;2023-05-21T01:50:48;94012.28;;;12.54;73.41
79085;BME280;68486;42.808;23.422;2023-05-21T01:53:14;93997.75;;;12.45;73.79
79085;BME280;68486;42.808;23.422;2023-05-21T01:55:41;94001.34;;;12.57;72.74
79085;BME280;68486;42.808;23.422;2023-05-21T01:58:08;94003.34;;;12.68;71.77
79085;BME280;68486;42.808;23.422;2023-05-21T02:00:34;94000.75;;;12.62;72.44
79085;BME280;68486;42.808;23.422;2023-05-21T02:02:59;93995.44;;;12.68;71.52
79085;BME280;68486;42.808;23.422;2023-05-21T02:05:25;93999.69;;;12.69;71.89
79085;BME280;68486;42.808;23.422;2023-05-21T02:07:51;93974.78;;;12.34;73.33
79085;BME280;68486;42.808;23.422;2023-05-21T02:10:17;93979.03;;;12.28;73.92
79085;BME280;68486;42.808;23.422;2023-05-21T02:12:43;93977.22;;;12.29;74.43
79085;BME280;68486;42.808;23.422;2023-05-21T02:15:08;93974.41;;;12.24;75.42
79085;BME280;68486;42.808;23.422;2023-05-21T02:17:34;93977.66;;;12.19;75.96
79085;BME280;68486;42.808;23.422;2023-05-21T02:20:00;93979.63;;;12.30;73.96
79085;BME280;68486;42.808;23.422;2023-05-21T02:22:40;93966.94;;;12.21;75.05
79085;BME280;68486;42.808;23.422;2023-05-21T02:25:06;93978.31;;;12.01;77.05
79085;BME280;68486;42.808;23.422;2023-05-21T02:27:32;93977.13;;;11.97;76.53
79085;BME280;68486;42.808;23.422;2023-05-21T02:29:59;93980.34;;;11.86;77.02
79085;BME280;68486;42.808;23.422;2023-05-21T02:32:25;93966.44;;;11.85;76.93
79085;BME280;68486;42.808;23.422;2023-05-21T02:34:50;93967.03;;;11.74;77.97
79085;BME280;68486;42.808;23.422;2023-05-21T02:37:15;93966.25;;;11.60;77.92
79085;BME280;68486;42.808;23.422;2023-05-21T02:39:41;93975.72;;;11.35;79.30
79085;BME280;68486;42.808;23.422;2023-05-21T02:42:07;93964.06;;;11.31;79.45
79085;BME280;68486;42.808;23.422;2023-05-21T02:44:32;93973.09;;;11.55;77.65
79085;BME280;68486;42.808;23.422;2023-05-21T02:46:57;93978.16;;;11.56;77.53
79085;BME280;68486;42.808;23.422;2023-05-21T02:49:23;93974.13;;;11.54;78.33
79085;BME280;68486;42.808;23.422;2023-05-21T02:51:48;93968.50;;;11.37;79.63
79085;BME280;68486;42.808;23.422;2023-05-21T02:54:14;93962.41;;;11.63;77.87
79085;BME280;68486;42.808;23.422;2023-05-21T02:56:39;93973.91;;;11.89;77.69
79085;BME280;68486;42.808;23.422;2023-05-21T02:59:05;93949.06;;;11.71;77.58
79085;BME280;68486;42.808;23.422;2023-05-21T03:01:30;93971.28;;;11.89;78.23
79085;BME280;68486;42.808;23.422;2023-05-21T03:03:56;93973.69;;;11.90;77.91
79085;BME280;68486;42.808;23.422;2023-05-21T03:06:21;93969.66;;;11.87;78.79
79085;BME280;68486;42.808;23.422;2023-05-21T03:08:46;93975.72;;;11.88;77.82
79085;BME280;68486;42.808;23.422;2023-05-21T03:11:12;93978.16;;;11.90;78.36
79085;BME280;68486;42.808;23.422;2023-05-21T03:13:37;93974.91;;;11.87;77.31
79085;BME280;68486;42.808;23.422;2023-05-21T03:16:03;93978.13;;;11.96;78.45
79085;BME280;68486;42.808;23.422;2023-05-21T03:18:28;93975.69;;;11.95;78.38
79085;BME280;68486;42.808;23.422;2023-05-21T03:20:54;93980.34;;;11.93;78.45
79085;BME280;68486;42.808;23.422;2023-05-21T03:23:19;93968.81;;;12.00;78.02
79085;BME280;68486;42.808;23.422;2023-05-21T03:25:44;93976.84;;;12.19;77.83
79085;BME280;68486;42.808;23.422;2023-05-21T03:28:10;93976.22;;;12.23;77.57
79085;BME280;68486;42.808;23.422;2023-05-21T03:30:35;93982.47;;;12.22;77.64
79085;BME280;68486;42.808;23.422;2023-05-21T03:33:03;93976.63;;;12.27;78.69
79085;BME280;68486;42.808;23.422;2023-05-21T03:35:29;93983.28;;;12.29;77.85
79085;BME280;68486;42.808;23.422;2023-05-21T03:37:54;93978.03;;;12.29;77.90
79085;BME280;68486;42.808;23.422;2023-05-21T03:40:20;93990.91;;;12.37;78.75
79085;BME280;68486;42.808;23.422;2023-05-21T03:42:46;93982.81;;;12.46;78.17
79085;BME280;68486;42.808;23.422;2023-05-21T03:45:11;93981.59;;;12.48;77.52
79085;BME280;68486;42.808;23.422;2023-05-21T03:47:37;93955.38;;;12.35;77.96
79085;BME280;68486;42.808;23.422;2023-05-21T03:50:03;93972.09;;;12.47;77.33
79085;BME280;68486;42.808;23.422;2023-05-21T03:52:30;93980.13;;;12.59;77.66
79085;BME280;68486;42.808;23.422;2023-05-21T03:54:55;93949.63;;;12.51;77.15
79085;BME280;68486;42.808;23.422;2023-05-21T03:57:20;93972.81;;;12.67;77.28
79085;BME280;68486;42.808;23.422;2023-05-21T03:59:46;93978.78;;;12.81;76.67
79085;BME280;68486;42.808;23.422;2023-05-21T04:02:11;93986.28;;;12.84;76.60
79085;BME280;68486;42.808;23.422;2023-05-21T04:04:36;93957.69;;;12.63;75.71
79085;BME280;68486;42.808;23.422;2023-05-21T04:07:02;93981.81;;;12.85;75.95
79085;BME280;68486;42.808;23.422;2023-05-21T04:09:29;93980.09;;;13.04;77.52
79085;BME280;68486;42.808;23.422;2023-05-21T04:11:54;93953.88;;;12.90;75.50
79085;BME280;68486;42.808;23.422;2023-05-21T04:14:21;93973.59;;;13.06;72.93
79085;BME280;68486;42.808;23.422;2023-05-21T04:16:47;93983.03;;;13.20;76.13
79085;BME280;68486;42.808;23.422;2023-05-21T04:19:13;93988.97;;;13.41;76.13
79085;BME280;68486;42.808;23.422;2023-05-21T04:21:39;93980.94;;;13.54;75.13
79085;BME280;68486;42.808;23.422;2023-05-21T04:24:04;93984.94;;;13.63;75.91
79085;BME280;68486;42.808;23.422;2023-05-21T04:26:30;93981.50;;;13.38;74.22
79085;BME280;68486;42.808;23.422;2023-05-21T04:28:58;93982.59;;;13.55;75.71
79085;BME280;68486;42.808;23.422;2023-05-21T04:31:23;93991.94;;;13.19;75.67
79085;BME280;68486;42.808;23.422;2023-05-21T04:33:49;93994.22;;;13.41;75.26
79085;BME280;68486;42.808;23.422;2023-05-21T04:36:15;93993.56;;;13.45;76.12
79085;BME280;68486;42.808;23.422;2023-05-21T04:38:41;93994.16;;;13.16;76.09
79085;BME280;68486;42.808;23.422;2023-05-21T04:41:07;93989.66;;;13.30;75.96
79085;BME280;68486;42.808;23.422;2023-05-21T04:43:35;93998.25;;;13.12;76.52
79085;BME280;68486;42.808;23.422;2023-05-21T04:46:00;93966.81;;;12.92;75.38
79085;BME280;68486;42.808;23.422;2023-05-21T04:48:26;94000.59;;;13.27;75.74
79085;BME280;68486;42.808;23.422;2023-05-21T04:50:53;93995.75;;;13.23;75.71
79085;BME280;68486;42.808;23.422;2023-05-21T04:53:19;93991.25;;;13.31;75.14
79085;BME280;68486;42.808;23.422;2023-05-21T04:55:45;93999.59;;;13.28;74.94
79085;BME280;68486;42.808;23.422;2023-05-21T04:58:11;94005.75;;;13.40;73.27
79085;BME280;68486;42.808;23.422;2023-05-21T05:00:37;94002.94;;;13.41;73.76
79085;BME280;68486;42.808;23.422;2023-05-21T05:03:03;93996.88;;;13.41;75.02
79085;BME280;68486;42.808;23.422;2023-05-21T05:05:29;93991.25;;;13.80;72.77
79085;BME280;68486;42.808;23.422;2023-05-21T05:07:54;93988.84;;;13.79;70.78
79085;BME280;68486;42.808;23.422;2023-05-21T05:10:21;93986.63;;;14.01;69.04
79085;BME280;68486;42.808;23.422;2023-05-21T05:12:47;93986.63;;;14.01;67.64
79085;BME280;68486;42.808;23.422;2023-05-21T05:15:13;93986.69;;;14.31;69.55
79085;BME280;68486;42.808;23.422;2023-05-21T05:17:38;93985.63;;;14.57;67.01
79085;BME280;68486;42.808;23.422;2023-05-21T05:20:06;93980.13;;;15.18;66.07
79085;BME280;68486;42.808;23.422;2023-05-21T05:22:32;93984.75;;;15.23;64.63
79085;BME280;68486;42.808;23.422;2023-05-21T05:24:57;93974.00;;;15.48;61.50
79085;BME280;68486;42.808;23.422;2023-05-21T05:27:22;93963.03;;;15.63;61.37
79085;BME280;68486;42.808;23.422;2023-05-21T05:29:48;93985.50;;;16.47;59.76
79085;BME280;68486;42.808;23.422;2023-05-21T05:32:13;93989.53;;;16.38;59.81
79085;BME280;68486;42.808;23.422;2023-05-21T05:34:39;93991.06;;;15.99;63.44
79085;BME280;68486;42.808;23.422;2023-05-21T05:37:04;93996.09;;;15.77;65.35
79085;BME280;68486;42.808;23.422;2023-05-21T05:39:29;93988.41;;;16.22;63.08
79085;BME280;68486;42.808;23.422;2023-05-21T05:41:55;93990.72;;;16.31;60.77
79085;BME280;68486;42.808;23.422;2023-05-21T05:44:20;93980.47;;;16.34;60.05
79085;BME280;68486;42.808;23.422;2023-05-21T05:46:46;93985.06;;;16.39;59.23
79085;BME280;68486;42.808;23.422;2023-05-21T05:49:11;93989.22;;;16.23;58.87
79085;BME280;68486;42.808;23.422;2023-05-21T05:51:37;93981.56;;;16.62;58.25
79085;BME280;68486;42.808;23.422;2023-05-21T05:54:03;93979.72;;;16.50;58.12
79085;BME280;68486;42.808;23.422;2023-05-21T05:56:29;93981.06;;;16.65;58.88
79085;BME280;68486;42.808;23.422;2023-05-21T05:58:54;93962.34;;;16.66;55.95
79085;BME280;68486;42.808;23.422;2023-05-21T06:01:20;93980.63;;;16.68;59.03
79085;BME280;68486;42.808;23.422;2023-05-21T06:03:49;93977.16;;;16.79;56.62
79085;BME280;68486;42.808;23.422;2023-05-21T06:06:14;93979.16;;;17.00;56.67
79085;BME280;68486;42.808;23.422;2023-05-21T06:08:41;93976.69;;;17.11;54.70
79085;BME280;68486;42.808;23.422;2023-05-21T06:11:06;93983.28;;;16.68;55.08
79085;BME280;68486;42.808;23.422;2023-05-21T06:13:31;93965.72;;;17.19;55.46
79085;BME280;68486;42.808;23.422;2023-05-21T06:15:57;93977.50;;;17.11;54.50
79085;BME280;68486;42.808;23.422;2023-05-21T06:18:22;93978.13;;;17.63;54.43
79085;BME280;68486;42.808;23.422;2023-05-21T06:20:48;93976.78;;;17.16;53.81
79085;BME280;68486;42.808;23.422;2023-05-21T06:23:13;93967.63;;;16.78;54.94
79085;BME280;68486;42.808;23.422;2023-05-21T06:25:38;93965.38;;;16.98;53.87
79085;BME280;68486;42.808;23.422;2023-05-21T06:28:04;93964.44;;;17.38;55.00
79085;BME280;68486;42.808;23.422;2023-05-21T06:30:30;93974.59;;;17.41;53.89
79085;BME280;68486;42.808;23.422;2023-05-21T06:32:55;93968.53;;;17.29;51.43
79085;BME280;68486;42.808;23.422;2023-05-21T06:35:22;93972.63;;;17.36;52.99
79085;BME280;68486;42.808;23.422;2023-05-21T06:37:47;93965.28;;;17.55;51.38
79085;BME280;68486;42.808;23.422;2023-05-21T06:40:13;93964.94;;;17.35;51.14
79085;BME280;68486;42.808;23.422;2023-05-21T06:42:38;93965.59;;;17.59;50.78
79085;BME280;68486;42.808;23.422;2023-05-21T06:45:04;93953.19;;;17.93;50.59
79085;BME280;68486;42.808;23.422;2023-05-21T06:47:29;93941.03;;;17.30;50.86
79085;BME280;68486;42.808;23.422;2023-05-21T06:49:55;93947.91;;;17.14;52.75
79085;BME280;68486;42.808;23.422;2023-05-21T06:52:20;93952.84;;;17.56;50.76
79085;BME280;68486;42.808;23.422;2023-05-21T06:54:46;93944.34;;;17.54;50.65
79085;BME280;68486;42.808;23.422;2023-05-21T06:57:13;93925.09;;;17.25;50.78
79085;BME280;68486;42.808;23.422;2023-05-21T06:59:39;93940.56;;;17.33;50.84
79085;BME280;68486;42.808;23.422;2023-05-21T07:02:05;93916.78;;;17.04;50.41
79085;BME280;68486;42.808;23.422;2023-05-21T07:04:30;93939.38;;;17.57;50.23
79085;BME280;68486;42.808;23.422;2023-05-21T07:06:56;93930.31;;;17.53;50.87
79085;BME280;68486;42.808;23.422;2023-05-21T07:09:21;93929.66;;;17.97;48.93
79085;BME280;68486;42.808;23.422;2023-05-21T07:11:47;93935.63;;;19.50;44.62
79085;BME280;68486;42.808;23.422;2023-05-21T07:14:12;93941.41;;;20.64;41.87
79085;BME280;68486;42.808;23.422;2023-05-21T07:16:37;93932.78;;;21.09;41.09
79085;BME280;68486;42.808;23.422;2023-05-21T07:19:03;93928.16;;;20.69;41.88
79085;BME280;68486;42.808;23.422;2023-05-21T07:21:29;93936.06;;;19.69;43.31
79085;BME280;68486;42.808;23.422;2023-05-21T07:23:54;93926.75;;;19.35;44.35
79085;BME280;68486;42.808;23.422;2023-05-21T07:26:20;93941.75;;;19.83;43.86
79085;BME280;68486;42.808;23.422;2023-05-21T07:28:46;93944.50;;;19.61;44.06
79085;BME280;68486;42.808;23.422;2023-05-21T07:31:11;93941.97;;;19.17;45.83
79085;BME280;68486;42.808;23.422;2023-05-21T07:33:37;93954.03;;;19.30;45.64
79085;BME280;68486;42.808;23.422;2023-05-21T07:36:03;93944.47;;;19.02;46.08
79085;BME280;68486;42.808;23.422;2023-05-21T07:38:29;93946.91;;;18.82;45.81
79085;BME280;68486;42.808;23.422;2023-05-21T07:40:54;93952.13;;;19.25;45.56
79085;BME280;68486;42.808;23.422;2023-05-21T07:43:20;93951.94;;;18.61;47.34
79085;BME280;68486;42.808;23.422;2023-05-21T07:45:46;93947.44;;;19.06;46.38
79085;BME280;68486;42.808;23.422;2023-05-21T07:48:11;93899.16;;;18.82;47.67
79085;BME280;68486;42.808;23.422;2023-05-21T07:50:37;93960.34;;;19.51;46.73
79085;BME280;68486;42.808;23.422;2023-05-21T07:53:03;93958.06;;;19.06;47.16
79085;BME280;68486;42.808;23.422;2023-05-21T07:55:28;93954.31;;;19.28;46.24
79085;BME280;68486;42.808;23.422;2023-05-21T07:57:54;93971.25;;;19.81;45.24
79085;BME280;68486;42.808;23.422;2023-05-21T08:00:22;93968.41;;;20.41;42.70
79085;BME280;68486;42.808;23.422;2023-05-21T08:02:48;93968.31;;;21.76;41.01
79085;BME280;68486;42.808;23.422;2023-05-21T08:05:14;93935.97;;;21.01;41.08
79085;BME280;68486;42.808;23.422;2023-05-21T08:07:40;93963.44;;;21.27;40.25
79085;BME280;68486;42.808;23.422;2023-05-21T08:10:06;93983.22;;;21.72;40.35
79085;BME280;68486;42.808;23.422;2023-05-21T08:12:33;93968.84;;;22.03;39.16
79085;BME280;68486;42.808;23.422;2023-05-21T08:14:58;93987.59;;;23.04;37.18
79085;BME280;68486;42.808;23.422;2023-05-21T08:17:24;93990.19;;;22.03;38.69
79085;BME280;68486;42.808;23.422;2023-05-21T08:19:49;93984.84;;;22.09;39.27
79085;BME280;68486;42.808;23.422;2023-05-21T08:22:15;93994.97;;;22.01;37.70
79085;BME280;68486;42.808;23.422;2023-05-21T08:24:40;93980.59;;;22.18;37.81
79085;BME280;68486;42.808;23.422;2023-05-21T08:27:05;93979.41;;;23.79;34.64
79085;BME280;68486;42.808;23.422;2023-05-21T08:29:32;93976.06;;;22.18;36.24
79085;BME280;68486;42.808;23.422;2023-05-21T08:31:57;93977.13;;;23.13;37.05
79085;BME280;68486;42.808;23.422;2023-05-21T08:34:23;93959.50;;;23.51;34.16
79085;BME280;68486;42.808;23.422;2023-05-21T08:36:48;93964.13;;;24.90;33.30
79085;BME280;68486;42.808;23.422;2023-05-21T08:39:14;93969.22;;;25.35;31.98
79085;BME280;68486;42.808;23.422;2023-05-21T08:41:40;93965.91;;;23.10;34.29
79085;BME280;68486;42.808;23.422;2023-05-21T08:44:10;93973.31;;;23.24;34.22
79085;BME280;68486;42.808;23.422;2023-05-21T08:46:39;93955.78;;;21.71;35.93
79085;BME280;68486;42.808;23.422;2023-05-21T08:49:11;93960.66;;;22.90;34.37
79085;BME280;68486;42.808;23.422;2023-05-21T08:51:36;93955.53;;;24.16;34.32
79085;BME280;68486;42.808;23.422;2023-05-21T08:54:04;93961.81;;;24.60;33.34
79085;BME280;68486;42.808;23.422;2023-05-21T08:56:33;93954.59;;;24.60;31.58
79085;BME280;68486;42.808;23.422;2023-05-21T08:58:59;93958.22;;;23.82;32.26
79085;BME280;68486;42.808;23.422;2023-05-21T09:01:26;93961.47;;;22.91;34.29
79085;BME280;68486;42.808;23.422;2023-05-21T09:03:51;93953.50;;;22.75;33.76
79085;BME280;68486;42.808;23.422;2023-05-21T09:06:20;93957.78;;;24.04;31.88
79085;BME280;68486;42.808;23.422;2023-05-21T09:08:51;93951.63;;;22.76;33.18
79085;BME280;68486;42.808;23.422;2023-05-21T09:11:18;93950.25;;;23.38;30.89
79085;BME280;68486;42.808;23.422;2023-05-21T09:13:44;93950.50;;;22.97;32.49
79085;BME280;68486;42.808;23.422;2023-05-21T09:16:10;93947.75;;;22.22;33.87
79085;BME280;68486;42.808;23.422;2023-05-21T09:18:36;93958.06;;;22.65;35.58
79085;BME280;68486;42.808;23.422;2023-05-21T09:21:30;93959.75;;;22.40;33.55
79085;BME280;68486;42.808;23.422;2023-05-21T09:23:57;93960.25;;;22.42;35.24
79085;BME280;68486;42.808;23.422;2023-05-21T09:26:23;93944.47;;;23.21;32.24
79085;BME280;68486;42.808;23.422;2023-05-21T09:28:50;93952.03;;;23.08;33.15
79085;BME280;68486;42.808;23.422;2023-05-21T09:31:22;93950.28;;;23.33;32.34
79085;BME280;68486;42.808;23.422;2023-05-21T09:33:48;93941.69;;;24.38;29.09
79085;BME280;68486;42.808;23.422;2023-05-21T09:36:14;93960.69;;;26.35;30.38
79085;BME280;68486;42.808;23.422;2023-05-21T09:38:43;93945.63;;;26.39;27.92
79085;BME280;68486;42.808;23.422;2023-05-21T09:41:09;93958.16;;;24.21;31.43
79085;BME280;68486;42.808;23.422;2023-05-21T09:43:35;93962.25;;;24.14;33.06
79085;BME280;68486;42.808;23.422;2023-05-21T09:46:01;93956.69;;;22.77;34.86
79085;BME280;68486;42.808;23.422;2023-05-21T09:51:15;93954.41;;;22.35;34.63
79085;BME280;68486;42.808;23.422;2023-05-21T09:53:57;93946.88;;;22.52;34.63
79085;BME280;68486;42.808;23.422;2023-05-21T09:56:26;93938.16;;;23.01;34.09
79085;BME280;68486;42.808;23.422;2023-05-21T09:58:57;93936.75;;;24.74;33.26
79085;BME280;68486;42.808;23.422;2023-05-21T10:01:24;93945.78;;;23.67;34.10
79085;BME280;68486;42.808;23.422;2023-05-21T10:03:53;93940.59;;;23.42;36.26
79085;BME280;68486;42.808;23.422;2023-05-21T10:06:25;93928.38;;;24.33;29.87
79085;BME280;68486;42.808;23.422;2023-05-21T10:08:53;93926.34;;;25.35;29.09
79085;BME280;68486;42.808;23.422;2023-05-21T10:11:23;93921.88;;;23.81;31.11
79085;BME280;68486;42.808;23.422;2023-05-21T10:13:54;93936.53;;;23.89;31.51
79085;BME280;68486;42.808;23.422;2023-05-21T10:16:21;93932.19;;;23.59;30.15
79085;BME280;68486;42.808;23.422;2023-05-21T10:18:48;93926.16;;;24.11;29.50
79085;BME280;68486;42.808;23.422;2023-05-21T10:21:14;93925.75;;;25.19;29.30
79085;BME280;68486;42.808;23.422;2023-05-21T10:23:40;93912.88;;;24.78;29.25
79085;BME280;68486;42.808;23.422;2023-05-21T10:26:07;93925.41;;;24.83;29.65
79085;BME280;68486;42.808;23.422;2023-05-21T10:28:32;93921.97;;;25.01;27.63
79085;BME280;68486;42.808;23.422;2023-05-21T10:30:59;93921.31;;;24.66;27.92
79085;BME280;68486;42.808;23.422;2023-05-21T10:33:25;93912.72;;;23.19;30.70
79085;BME280;68486;42.808;23.422;2023-05-21T10:35:52;93913.78;;;22.58;30.73
79085;BME280;68486;42.808;23.422;2023-05-21T10:38:18;93896.97;;;23.52;29.96
79085;BME280;68486;42.808;23.422;2023-05-21T10:40:47;93922.84;;;24.72;29.74
79085;BME280;68486;42.808;23.422;2023-05-21T10:51:37;93931.09;;;26.41;26.72
79085;BME280;68486;42.808;23.422;2023-05-21T10:54:37;93908.06;;;26.21;27.01
79085;BME280;68486;42.808;23.422;2023-05-21T10:57:43;93905.97;;;26.04;28.04
79085;BME280;68486;42.808;23.422;2023-05-21T11:00:14;93909.25;;;26.01;28.54
79085;BME280;68486;42.808;23.422;2023-05-21T11:02:41;93917.09;;;25.78;29.14
79085;BME280;68486;42.808;23.422;2023-05-21T11:05:07;93925.19;;;24.98;29.77
79085;BME280;68486;42.808;23.422;2023-05-21T11:07:52;93919.94;;;24.93;30.30
79085;BME280;68486;42.808;23.422;2023-05-21T11:10:39;93903.69;;;25.08;31.27
79085;BME280;68486;42.808;23.422;2023-05-21T11:13:15;93905.28;;;24.42;29.33
79085;BME280;68486;42.808;23.422;2023-05-21T11:21:11;93892.47;;;25.06;30.03
79085;BME280;68486;42.808;23.422;2023-05-21T11:23:53;93891.56;;;26.27;29.27
79085;BME280;68486;42.808;23.422;2023-05-21T11:26:23;93889.47;;;24.65;32.00
79085;BME280;68486;42.808;23.422;2023-05-21T11:31:31;93863.63;;;25.36;30.61
79085;BME280;68486;42.808;23.422;2023-05-21T11:34:18;93892.53;;;25.71;28.84
79085;BME280;68486;42.808;23.422;2023-05-21T11:36:47;93872.34;;;25.93;29.12
79085;BME280;68486;42.808;23.422;2023-05-21T11:39:16;93888.25;;;25.38;29.43
79085;BME280;68486;42.808;23.422;2023-05-21T11:41:56;93886.63;;;24.99;29.71
79085;BME280;68486;42.808;23.422;2023-05-21T11:44:43;93870.72;;;23.93;32.78
79085;BME280;68486;42.808;23.422;2023-05-21T11:47:14;93886.25;;;23.18;34.18
79085;BME280;68486;42.808;23.422;2023-05-21T11:49:40;93895.78;;;22.84;35.56
79085;BME280;68486;42.808;23.422;2023-05-21T11:52:07;93885.56;;;23.02;35.35
79085;BME280;68486;42.808;23.422;2023-05-21T11:54:38;93881.38;;;22.06;35.73
79085;BME280;68486;42.808;23.422;2023-05-21T11:57:07;93884.31;;;22.04;36.57
79085;BME280;68486;42.808;23.422;2023-05-21T11:59:33;93839.97;;;22.39;35.75
79085;BME280;68486;42.808;23.422;2023-05-21T12:01:59;93856.53;;;22.85;34.07
79085;BME280;68486;42.808;23.422;2023-05-21T12:04:32;93868.75;;;25.83;31.39
79085;BME280;68486;42.808;23.422;2023-05-21T12:07:08;93849.47;;;25.81;30.48
79085;BME280;68486;42.808;23.422;2023-05-21T12:09:47;93867.88;;;24.08;32.89
79085;BME280;68486;42.808;23.422;2023-05-21T12:12:18;93869.13;;;23.92;33.37
79085;BME280;68486;42.808;23.422;2023-05-21T12:14:47;93877.97;;;22.75;35.85
79085;BME280;68486;42.808;23.422;2023-05-21T12:17:20;93870.22;;;21.78;37.28
79085;BME280;68486;42.808;23.422;2023-05-21T12:19:46;93877.69;;;21.10;38.52
79085;BME280;68486;42.808;23.422;2023-05-21T12:22:12;93869.91;;;20.93;38.53
79085;BME280;68486;42.808;23.422;2023-05-21T12:24:39;93877.66;;;21.05;39.43
79085;BME280;68486;42.808;23.422;2023-05-21T12:27:06;93868.34;;;21.07;39.19
79085;BME280;68486;42.808;23.422;2023-05-21T12:29:35;93875.53;;;21.12;39.34
79085;BME280;68486;42.808;23.422;2023-05-21T12:32:03;93870.69;;;20.83;39.06
79085;BME280;68486;42.808;23.422;2023-05-21T12:37:07;93857.03;;;22.38;35.10
79085;BME280;68486;42.808;23.422;2023-05-21T12:39:43;93845.50;;;23.99;33.51
79085;BME280;68486;42.808;23.422;2023-05-21T12:42:09;93833.28;;;23.59;32.57
79085;BME280;68486;42.808;23.422;2023-05-21T12:44:34;93837.94;;;24.30;30.60
79085;BME280;68486;42.808;23.422;2023-05-21T12:47:01;93843.66;;;25.09;30.20
79085;BME280;68486;42.808;23.422;2023-05-21T12:52:04;93835.81;;;26.24;29.41
79085;BME280;68486;42.808;23.422;2023-05-21T12:54:33;93841.56;;;26.04;29.43
79085;BME280;68486;42.808;23.422;2023-05-21T12:57:19;93856.31;;;24.61;32.45
79085;BME280;68486;42.808;23.422;2023-05-21T13:04:55;93857.41;;;20.99;39.38
79085;BME280;68486;42.808;23.422;2023-05-21T13:07:20;93858.97;;;20.69;39.71
79085;BME280;68486;42.808;23.422;2023-05-21T13:09:46;93841.97;;;20.07;39.44
79085;BME280;68486;42.808;23.422;2023-05-21T13:12:12;93839.75;;;20.47;39.11
79085;BME280;68486;42.808;23.422;2023-05-21T13:14:38;93849.25;;;20.32;39.06
79085;BME280;68486;42.808;23.422;2023-05-21T13:17:03;93861.66;;;20.74;38.88
79085;BME280;68486;42.808;23.422;2023-05-21T13:19:29;93853.09;;;22.20;35.82